sensor_id;sensor_type;location;lat;lon;timestamp;pressure;altitude;pressure_sealevel;temperature
41940;BMP180;23057;48.554;14.454;2023-06-19T00:02:08;93717.00;;;21.70
41940;BMP180;23057;48.554;14.454;2023-06-19T00:04:38;93714.00;;;21.60
41940;BMP180;23057;48.554;14.454;2023-06-19T00:07:09;93716.00;;;21.50
41940;BMP180;23057;48.554;14.454;2023-06-19T00:09:40;93712.00;;;21.50
41940;BMP180;23057;48.554;14.454;2023-06-19T00:12:11;93713.00;;;21.50
41940;BMP180;23057;48.554;14.454;2023-06-19T00:14:41;93711.00;;;21.40
41940;BMP180;23057;48.554;14.454;2023-06-19T00:17:13;93707.00;;;21.30
41940;BMP180;23057;48.554;14.454;2023-06-19T00:19:47;93701.00;;;21.30
41940;BMP180;23057;48.554;14.454;2023-06-19T00:22:19;93711.00;;;21.20
41940;BMP180;23057;48.554;14.454;2023-06-19T00:24:50;93705.00;;;21.10
41940;BMP180;23057;48.554;14.454;2023-06-19T00:27:22;93694.00;;;21.10
41940;BMP180;23057;48.554;14.454;2023-06-19T00:29:54;93704.00;;;21.00
41940;BMP180;23057;48.554;14.454;2023-06-19T00:32:25;93700.00;;;21.00
41940;BMP180;23057;48.554;14.454;2023-06-19T00:34:56;93705.00;;;20.90
41940;BMP180;23057;48.554;14.454;2023-06-19T00:37:27;93705.00;;;20.90
41940;BMP180;23057;48.554;14.454;2023-06-19T00:40:02;93698.00;;;20.90
41940;BMP180;23057;48.554;14.454;2023-06-19T00:42:33;93700.00;;;20.90
41940;BMP180;23057;48.554;14.454;2023-06-19T00:45:05;93709.00;;;20.90
41940;BMP180;23057;48.554;14.454;2023-06-19T00:47:36;93702.00;;;20.90
41940;BMP180;23057;48.554;14.454;2023-06-19T00:50:07;93699.00;;;20.80
41940;BMP180;23057;48.554;14.454;2023-06-19T00:52:38;93697.00;;;20.80
41940;BMP180;23057;48.554;14.454;2023-06-19T00:55:10;93705.00;;;20.80
41940;BMP180;23057;48.554;14.454;2023-06-19T00:57:42;93699.00;;;20.70
41940;BMP180;23057;48.554;14.454;2023-06-19T01:00:14;93700.00;;;20.70
41940;BMP180;23057;48.554;14.454;2023-06-19T01:02:46;93701.00;;;20.70
41940;BMP180;23057;48.554;14.454;2023-06-19T01:05:17;93696.00;;;20.70
41940;BMP180;23057;48.554;14.454;2023-06-19T01:10:33;93703.00;;;20.70
41940;BMP180;23057;48.554;14.454;2023-06-19T01:13:34;93699.00;;;20.70
41940;BMP180;23057;48.554;14.454;2023-06-19T01:16:12;93698.00;;;20.70
41940;BMP180;23057;48.554;14.454;2023-06-19T01:18:44;93695.00;;;20.70
41940;BMP180;23057;48.554;14.454;2023-06-19T01:21:17;93696.00;;;20.70
41940;BMP180;23057;48.554;14.454;2023-06-19T01:23:48;93696.00;;;20.70
41940;BMP180;23057;48.554;14.454;2023-06-19T01:26:21;93697.00;;;20.60
41940;BMP180;23057;48.554;14.454;2023-06-19T01:28:56;93691.00;;;20.60
41940;BMP180;23057;48.554;14.454;2023-06-19T01:31:31;93697.00;;;20.60
41940;BMP180;23057;48.554;14.454;2023-06-19T01:34:07;93691.00;;;20.60
41940;BMP180;23057;48.554;14.454;2023-06-19T01:36:41;93689.00;;;20.50
41940;BMP180;23057;48.554;14.454;2023-06-19T01:39:12;93688.00;;;20.50
41940;BMP180;23057;48.554;14.454;2023-06-19T01:41:45;93686.00;;;20.50
41940;BMP180;23057;48.554;14.454;2023-06-19T01:44:16;93678.00;;;20.50
41940;BMP180;23057;48.554;14.454;2023-06-19T01:46:48;93683.00;;;20.50
41940;BMP180;23057;48.554;14.454;2023-06-19T01:49:22;93682.00;;;20.50
41940;BMP180;23057;48.554;14.454;2023-06-19T01:51:53;93684.00;;;20.50
41940;BMP180;23057;48.554;14.454;2023-06-19T01:54:25;93691.00;;;20.60
41940;BMP180;23057;48.554;14.454;2023-06-19T01:56:57;93686.00;;;20.50
41940;BMP180;23057;48.554;14.454;2023-06-19T01:59:29;93695.00;;;20.50
41940;BMP180;23057;48.554;14.454;2023-06-19T02:02:00;93689.00;;;20.50
41940;BMP180;23057;48.554;14.454;2023-06-19T02:04:31;93689.00;;;20.50
41940;BMP180;23057;48.554;14.454;2023-06-19T02:07:05;93686.00;;;20.40
41940;BMP180;23057;48.554;14.454;2023-06-19T02:09:37;93700.00;;;20.40
41940;BMP180;23057;48.554;14.454;2023-06-19T02:12:08;93690.00;;;20.40
41940;BMP180;23057;48.554;14.454;2023-06-19T02:14:39;93694.00;;;20.40
41940;BMP180;23057;48.554;14.454;2023-06-19T02:17:10;93688.00;;;20.40
41940;BMP180;23057;48.554;14.454;2023-06-19T02:19:41;93689.00;;;20.30
41940;BMP180;23057;48.554;14.454;2023-06-19T02:22:13;93689.00;;;20.30
41940;BMP180;23057;48.554;14.454;2023-06-19T02:24:43;93685.00;;;20.30
41940;BMP180;23057;48.554;14.454;2023-06-19T02:27:15;93683.00;;;20.20
41940;BMP180;23057;48.554;14.454;2023-06-19T02:29:46;93686.00;;;20.20
41940;BMP180;23057;48.554;14.454;2023-06-19T02:32:17;93677.00;;;20.20
41940;BMP180;23057;48.554;14.454;2023-06-19T02:34:48;93675.00;;;20.20
41940;BMP180;23057;48.554;14.454;2023-06-19T02:37:19;93682.00;;;20.20
41940;BMP180;23057;48.554;14.454;2023-06-19T02:39:49;93682.00;;;20.10
41940;BMP180;23057;48.554;14.454;2023-06-19T02:42:20;93681.00;;;20.10
41940;BMP180;23057;48.554;14.454;2023-06-19T02:44:51;93674.00;;;20.10
41940;BMP180;23057;48.554;14.454;2023-06-19T02:47:21;93678.00;;;20.10
41940;BMP180;23057;48.554;14.454;2023-06-19T02:49:52;93685.00;;;20.00
41940;BMP180;23057;48.554;14.454;2023-06-19T02:52:23;93681.00;;;20.00
41940;BMP180;23057;48.554;14.454;2023-06-19T02:54:54;93690.00;;;20.00
41940;BMP180;23057;48.554;14.454;2023-06-19T02:57:25;93678.00;;;20.00
41940;BMP180;23057;48.554;14.454;2023-06-19T02:59:55;93684.00;;;20.00
41940;BMP180;23057;48.554;14.454;2023-06-19T03:02:26;93687.00;;;19.90
41940;BMP180;23057;48.554;14.454;2023-06-19T03:04:57;93687.00;;;19.90
41940;BMP180;23057;48.554;14.454;2023-06-19T03:07:27;93691.00;;;19.80
41940;BMP180;23057;48.554;14.454;2023-06-19T03:09:59;93691.00;;;19.80
41940;BMP180;23057;48.554;14.454;2023-06-19T03:12:29;93700.00;;;19.80
41940;BMP180;23057;48.554;14.454;2023-06-19T03:15:00;93697.00;;;19.70
41940;BMP180;23057;48.554;14.454;2023-06-19T03:17:31;93694.00;;;19.70
41940;BMP180;23057;48.554;14.454;2023-06-19T03:20:01;93692.00;;;19.80
41940;BMP180;23057;48.554;14.454;2023-06-19T03:22:32;93692.00;;;19.90
41940;BMP180;23057;48.554;14.454;2023-06-19T03:25:03;93696.00;;;20.00
41940;BMP180;23057;48.554;14.454;2023-06-19T03:27:34;93703.00;;;20.20
41940;BMP180;23057;48.554;14.454;2023-06-19T03:30:05;93695.00;;;20.40
41940;BMP180;23057;48.554;14.454;2023-06-19T03:32:38;93705.00;;;20.60
41940;BMP180;23057;48.554;14.454;2023-06-19T03:35:09;93705.00;;;20.70
41940;BMP180;23057;48.554;14.454;2023-06-19T03:37:40;93704.00;;;20.70
41940;BMP180;23057;48.554;14.454;2023-06-19T03:40:11;93698.00;;;20.70
41940;BMP180;23057;48.554;14.454;2023-06-19T03:42:44;93707.00;;;20.60
41940;BMP180;23057;48.554;14.454;2023-06-19T03:45:14;93708.00;;;20.60
41940;BMP180;23057;48.554;14.454;2023-06-19T03:47:45;93707.00;;;20.50
41940;BMP180;23057;48.554;14.454;2023-06-19T03:50:16;93710.00;;;20.70
41940;BMP180;23057;48.554;14.454;2023-06-19T03:52:47;93714.00;;;20.90
41940;BMP180;23057;48.554;14.454;2023-06-19T03:55:18;93704.00;;;21.30
41940;BMP180;23057;48.554;14.454;2023-06-19T03:57:48;93705.00;;;21.60
41940;BMP180;23057;48.554;14.454;2023-06-19T04:00:19;93696.00;;;22.00
41940;BMP180;23057;48.554;14.454;2023-06-19T04:02:50;93703.00;;;22.30
41940;BMP180;23057;48.554;14.454;2023-06-19T04:05:21;93705.00;;;22.60
41940;BMP180;23057;48.554;14.454;2023-06-19T04:07:52;93701.00;;;22.90
41940;BMP180;23057;48.554;14.454;2023-06-19T04:10:22;93702.00;;;23.30
41940;BMP180;23057;48.554;14.454;2023-06-19T04:12:53;93705.00;;;23.60
41940;BMP180;23057;48.554;14.454;2023-06-19T04:15:25;93707.00;;;23.90
41940;BMP180;23057;48.554;14.454;2023-06-19T04:17:56;93707.00;;;24.20
41940;BMP180;23057;48.554;14.454;2023-06-19T04:20:27;93708.00;;;24.40
41940;BMP180;23057;48.554;14.454;2023-06-19T04:22:58;93716.00;;;24.70
41940;BMP180;23057;48.554;14.454;2023-06-19T04:25:28;93707.00;;;24.90
41940;BMP180;23057;48.554;14.454;2023-06-19T04:27:59;93709.00;;;25.10
41940;BMP180;23057;48.554;14.454;2023-06-19T04:30:30;93713.00;;;25.30
41940;BMP180;23057;48.554;14.454;2023-06-19T04:33:01;93712.00;;;25.50
41940;BMP180;23057;48.554;14.454;2023-06-19T04:35:32;93714.00;;;25.70
41940;BMP180;23057;48.554;14.454;2023-06-19T04:38:02;93712.00;;;25.90
41940;BMP180;23057;48.554;14.454;2023-06-19T04:40:33;93716.00;;;26.00
41940;BMP180;23057;48.554;14.454;2023-06-19T04:43:04;93724.00;;;26.30
41940;BMP180;23057;48.554;14.454;2023-06-19T04:45:36;93721.00;;;26.50
41940;BMP180;23057;48.554;14.454;2023-06-19T04:48:07;93726.00;;;26.60
41940;BMP180;23057;48.554;14.454;2023-06-19T04:50:37;93726.00;;;26.80
41940;BMP180;23057;48.554;14.454;2023-06-19T04:53:08;93734.00;;;26.90
41940;BMP180;23057;48.554;14.454;2023-06-19T04:55:39;93734.00;;;27.00
41940;BMP180;23057;48.554;14.454;2023-06-19T04:58:10;93726.00;;;27.10
41940;BMP180;23057;48.554;14.454;2023-06-19T05:00:40;93739.00;;;27.20
41940;BMP180;23057;48.554;14.454;2023-06-19T05:03:11;93733.00;;;27.40
41940;BMP180;23057;48.554;14.454;2023-06-19T05:05:44;93737.00;;;27.60
41940;BMP180;23057;48.554;14.454;2023-06-19T05:08:15;93737.00;;;27.90
41940;BMP180;23057;48.554;14.454;2023-06-19T05:10:45;93745.00;;;28.20
41940;BMP180;23057;48.554;14.454;2023-06-19T05:13:16;93744.00;;;28.60
41940;BMP180;23057;48.554;14.454;2023-06-19T05:15:48;93742.00;;;28.90
41940;BMP180;23057;48.554;14.454;2023-06-19T05:18:20;93752.00;;;29.20
41940;BMP180;23057;48.554;14.454;2023-06-19T05:20:51;93751.00;;;29.30
41940;BMP180;23057;48.554;14.454;2023-06-19T05:23:22;93754.00;;;29.30
41940;BMP180;23057;48.554;14.454;2023-06-19T05:25:52;93754.00;;;29.40
41940;BMP180;23057;48.554;14.454;2023-06-19T05:28:23;93755.00;;;29.40
41940;BMP180;23057;48.554;14.454;2023-06-19T05:30:54;93763.00;;;29.10
41940;BMP180;23057;48.554;14.454;2023-06-19T05:33:24;93766.00;;;28.90
41940;BMP180;23057;48.554;14.454;2023-06-19T05:35:55;93769.00;;;28.70
41940;BMP180;23057;48.554;14.454;2023-06-19T05:38:26;93760.00;;;28.50
41940;BMP180;23057;48.554;14.454;2023-06-19T05:40:58;93765.00;;;28.30
41940;BMP180;23057;48.554;14.454;2023-06-19T05:43:30;93763.00;;;28.20
41940;BMP180;23057;48.554;14.454;2023-06-19T05:46:02;93762.00;;;28.10
41940;BMP180;23057;48.554;14.454;2023-06-19T05:48:33;93767.00;;;28.00
41940;BMP180;23057;48.554;14.454;2023-06-19T05:51:04;93759.00;;;28.10
41940;BMP180;23057;48.554;14.454;2023-06-19T05:53:34;93767.00;;;28.40
41940;BMP180;23057;48.554;14.454;2023-06-19T05:56:05;93767.00;;;28.70
41940;BMP180;23057;48.554;14.454;2023-06-19T05:58:37;93770.00;;;28.90
41940;BMP180;23057;48.554;14.454;2023-06-19T06:01:08;93764.00;;;29.00
41940;BMP180;23057;48.554;14.454;2023-06-19T06:03:38;93783.00;;;29.10
41940;BMP180;23057;48.554;14.454;2023-06-19T06:06:09;93778.00;;;29.50
41940;BMP180;23057;48.554;14.454;2023-06-19T06:08:40;93780.00;;;29.90
41940;BMP180;23057;48.554;14.454;2023-06-19T06:11:11;93787.00;;;30.30
41940;BMP180;23057;48.554;14.454;2023-06-19T06:13:42;93786.00;;;30.60
41940;BMP180;23057;48.554;14.454;2023-06-19T06:16:13;93779.00;;;31.00
41940;BMP180;23057;48.554;14.454;2023-06-19T06:18:45;93790.00;;;31.30
41940;BMP180;23057;48.554;14.454;2023-06-19T06:21:16;93793.00;;;31.60
41940;BMP180;23057;48.554;14.454;2023-06-19T06:23:46;93796.00;;;31.80
41940;BMP180;23057;48.554;14.454;2023-06-19T06:26:18;93791.00;;;32.10
41940;BMP180;23057;48.554;14.454;2023-06-19T06:28:49;93794.00;;;32.30
41940;BMP180;23057;48.554;14.454;2023-06-19T06:31:19;93799.00;;;32.50
41940;BMP180;23057;48.554;14.454;2023-06-19T06:33:50;93813.00;;;32.40
41940;BMP180;23057;48.554;14.454;2023-06-19T06:36:21;93814.00;;;32.40
41940;BMP180;23057;48.554;14.454;2023-06-19T06:38:51;93823.00;;;32.30
41940;BMP180;23057;48.554;14.454;2023-06-19T06:41:22;93820.00;;;32.20
41940;BMP180;23057;48.554;14.454;2023-06-19T06:43:53;93820.00;;;32.30
41940;BMP180;23057;48.554;14.454;2023-06-19T06:46:25;93822.00;;;32.50
41940;BMP180;23057;48.554;14.454;2023-06-19T06:48:56;93820.00;;;32.80
41940;BMP180;23057;48.554;14.454;2023-06-19T06:51:27;93823.00;;;32.80
41940;BMP180;23057;48.554;14.454;2023-06-19T06:53:57;93822.00;;;32.60
41940;BMP180;23057;48.554;14.454;2023-06-19T06:56:28;93835.00;;;32.50
41940;BMP180;23057;48.554;14.454;2023-06-19T06:58:59;93838.00;;;32.60
41940;BMP180;23057;48.554;14.454;2023-06-19T07:01:30;93837.00;;;32.70
41940;BMP180;23057;48.554;14.454;2023-06-19T07:04:01;93833.00;;;32.90
41940;BMP180;23057;48.554;14.454;2023-06-19T07:06:31;93833.00;;;33.00
41940;BMP180;23057;48.554;14.454;2023-06-19T07:09:02;93837.00;;;33.00
41940;BMP180;23057;48.554;14.454;2023-06-19T07:11:33;93843.00;;;33.20
41940;BMP180;23057;48.554;14.454;2023-06-19T07:14:03;93838.00;;;33.30
41940;BMP180;23057;48.554;14.454;2023-06-19T07:16:34;93834.00;;;33.50
41940;BMP180;23057;48.554;14.454;2023-06-19T07:19:05;93835.00;;;33.80
41940;BMP180;23057;48.554;14.454;2023-06-19T07:21:36;93825.00;;;34.00
41940;BMP180;23057;48.554;14.454;2023-06-19T07:24:07;93825.00;;;34.00
41940;BMP180;23057;48.554;14.454;2023-06-19T07:26:37;93819.00;;;33.90
41940;BMP180;23057;48.554;14.454;2023-06-19T07:29:08;93827.00;;;33.80
41940;BMP180;23057;48.554;14.454;2023-06-19T07:31:39;93833.00;;;33.80
41940;BMP180;23057;48.554;14.454;2023-06-19T07:34:13;93829.00;;;33.80
41940;BMP180;23057;48.554;14.454;2023-06-19T07:36:44;93830.00;;;33.70
41940;BMP180;23057;48.554;14.454;2023-06-19T07:39:14;93824.00;;;33.70
41940;BMP180;23057;48.554;14.454;2023-06-19T07:41:45;93830.00;;;33.60
41940;BMP180;23057;48.554;14.454;2023-06-19T07:44:16;93834.00;;;33.50
41940;BMP180;23057;48.554;14.454;2023-06-19T07:46:48;93831.00;;;33.40
41940;BMP180;23057;48.554;14.454;2023-06-19T07:49:19;93828.00;;;33.30
41940;BMP180;23057;48.554;14.454;2023-06-19T07:51:49;93833.00;;;33.20
41940;BMP180;23057;48.554;14.454;2023-06-19T07:54:20;93836.00;;;33.10
41940;BMP180;23057;48.554;14.454;2023-06-19T07:56:51;93830.00;;;32.90
41940;BMP180;23057;48.554;14.454;2023-06-19T07:59:22;93839.00;;;32.80
41940;BMP180;23057;48.554;14.454;2023-06-19T08:01:53;93843.00;;;32.70
41940;BMP180;23057;48.554;14.454;2023-06-19T08:04:23;93856.00;;;32.60
41940;BMP180;23057;48.554;14.454;2023-06-19T08:06:54;93855.00;;;32.60
41940;BMP180;23057;48.554;14.454;2023-06-19T08:09:26;93859.00;;;32.50
41940;BMP180;23057;48.554;14.454;2023-06-19T08:11:57;93858.00;;;32.50
41940;BMP180;23057;48.554;14.454;2023-06-19T08:14:28;93868.00;;;32.40
41940;BMP180;23057;48.554;14.454;2023-06-19T08:16:58;93864.00;;;32.50
41940;BMP180;23057;48.554;14.454;2023-06-19T08:19:29;93864.00;;;32.40
41940;BMP180;23057;48.554;14.454;2023-06-19T08:22:00;93873.00;;;32.40
41940;BMP180;23057;48.554;14.454;2023-06-19T08:24:30;93869.00;;;32.30
41940;BMP180;23057;48.554;14.454;2023-06-19T08:27:02;93865.00;;;32.10
41940;BMP180;23057;48.554;14.454;2023-06-19T08:29:33;93874.00;;;32.20
41940;BMP180;23057;48.554;14.454;2023-06-19T08:32:04;93871.00;;;32.20
41940;BMP180;23057;48.554;14.454;2023-06-19T08:34:35;93866.00;;;32.20
41940;BMP180;23057;48.554;14.454;2023-06-19T08:37:08;93873.00;;;32.20
41940;BMP180;23057;48.554;14.454;2023-06-19T08:39:39;93875.00;;;32.20
41940;BMP180;23057;48.554;14.454;2023-06-19T08:42:10;93875.00;;;32.10
41940;BMP180;23057;48.554;14.454;2023-06-19T08:44:41;93878.00;;;32.00
41940;BMP180;23057;48.554;14.454;2023-06-19T08:47:11;93884.00;;;32.10
41940;BMP180;23057;48.554;14.454;2023-06-19T08:49:42;93876.00;;;32.00
41940;BMP180;23057;48.554;14.454;2023-06-19T08:52:13;93874.00;;;32.00
41940;BMP180;23057;48.554;14.454;2023-06-19T08:54:44;93870.00;;;32.00
41940;BMP180;23057;48.554;14.454;2023-06-19T08:57:14;93865.00;;;32.00
41940;BMP180;23057;48.554;14.454;2023-06-19T08:59:49;93863.00;;;31.90
41940;BMP180;23057;48.554;14.454;2023-06-19T09:02:20;93856.00;;;31.80
41940;BMP180;23057;48.554;14.454;2023-06-19T09:04:51;93873.00;;;31.60
41940;BMP180;23057;48.554;14.454;2023-06-19T09:07:22;93869.00;;;31.50
41940;BMP180;23057;48.554;14.454;2023-06-19T09:09:53;93870.00;;;31.50
41940;BMP180;23057;48.554;14.454;2023-06-19T09:12:23;93882.00;;;31.50
41940;BMP180;23057;48.554;14.454;2023-06-19T09:14:54;93876.00;;;31.50
41940;BMP180;23057;48.554;14.454;2023-06-19T09:17:25;93879.00;;;31.50
41940;BMP180;23057;48.554;14.454;2023-06-19T09:19:56;93886.00;;;31.40
41940;BMP180;23057;48.554;14.454;2023-06-19T09:22:28;93880.00;;;31.40
41940;BMP180;23057;48.554;14.454;2023-06-19T09:25:01;93890.00;;;31.40
41940;BMP180;23057;48.554;14.454;2023-06-19T09:27:33;93882.00;;;31.50
41940;BMP180;23057;48.554;14.454;2023-06-19T09:30:05;93878.00;;;31.50
41940;BMP180;23057;48.554;14.454;2023-06-19T09:32:36;93870.00;;;31.50
41940;BMP180;23057;48.554;14.454;2023-06-19T09:35:07;93873.00;;;31.50
41940;BMP180;23057;48.554;14.454;2023-06-19T09:37:39;93877.00;;;31.60
41940;BMP180;23057;48.554;14.454;2023-06-19T09:40:13;93868.00;;;31.60
41940;BMP180;23057;48.554;14.454;2023-06-19T09:42:44;93868.00;;;31.60
41940;BMP180;23057;48.554;14.454;2023-06-19T09:45:15;93871.00;;;31.70
41940;BMP180;23057;48.554;14.454;2023-06-19T09:47:51;93880.00;;;31.80
41940;BMP180;23057;48.554;14.454;2023-06-19T09:50:26;93876.00;;;31.90
41940;BMP180;23057;48.554;14.454;2023-06-19T09:52:59;93874.00;;;32.00
41940;BMP180;23057;48.554;14.454;2023-06-19T09:55:30;93877.00;;;32.20
41940;BMP180;23057;48.554;14.454;2023-06-19T09:58:02;93878.00;;;32.40
41940;BMP180;23057;48.554;14.454;2023-06-19T10:00:36;93882.00;;;32.60
41940;BMP180;23057;48.554;14.454;2023-06-19T10:03:12;93884.00;;;32.80
41940;BMP180;23057;48.554;14.454;2023-06-19T10:05:43;93888.00;;;33.00
41940;BMP180;23057;48.554;14.454;2023-06-19T10:08:27;93883.00;;;33.20
41940;BMP180;23057;48.554;14.454;2023-06-19T10:10:59;93879.00;;;33.40
41940;BMP180;23057;48.554;14.454;2023-06-19T10:13:32;93877.00;;;33.70
41940;BMP180;23057;48.554;14.454;2023-06-19T10:16:05;93876.00;;;33.90
41940;BMP180;23057;48.554;14.454;2023-06-19T10:18:46;93872.00;;;34.10
41940;BMP180;23057;48.554;14.454;2023-06-19T10:21:21;93869.00;;;34.10
41940;BMP180;23057;48.554;14.454;2023-06-19T10:23:57;93870.00;;;34.30
41940;BMP180;23057;48.554;14.454;2023-06-19T10:26:35;93868.00;;;34.50
41940;BMP180;23057;48.554;14.454;2023-06-19T10:29:16;93865.00;;;34.70
41940;BMP180;23057;48.554;14.454;2023-06-19T10:31:47;93866.00;;;34.70
41940;BMP180;23057;48.554;14.454;2023-06-19T10:34:18;93872.00;;;34.80
41940;BMP180;23057;48.554;14.454;2023-06-19T10:36:49;93871.00;;;34.90
41940;BMP180;23057;48.554;14.454;2023-06-19T10:39:20;93864.00;;;35.00
41940;BMP180;23057;48.554;14.454;2023-06-19T10:41:51;93864.00;;;35.10
41940;BMP180;23057;48.554;14.454;2023-06-19T10:44:23;93869.00;;;35.20
41940;BMP180;23057;48.554;14.454;2023-06-19T10:46:56;93867.00;;;35.20
41940;BMP180;23057;48.554;14.454;2023-06-19T10:49:27;93863.00;;;35.10
41940;BMP180;23057;48.554;14.454;2023-06-19T10:51:59;93860.00;;;35.10
41940;BMP180;23057;48.554;14.454;2023-06-19T10:54:32;93855.00;;;35.00
41940;BMP180;23057;48.554;14.454;2023-06-19T10:57:05;93861.00;;;35.00
41940;BMP180;23057;48.554;14.454;2023-06-19T10:59:36;93851.00;;;35.00
41940;BMP180;23057;48.554;14.454;2023-06-19T11:02:10;93851.00;;;34.90
41940;BMP180;23057;48.554;14.454;2023-06-19T11:04:41;93859.00;;;34.80
41940;BMP180;23057;48.554;14.454;2023-06-19T11:07:12;93856.00;;;34.90
41940;BMP180;23057;48.554;14.454;2023-06-19T11:09:42;93858.00;;;34.90
41940;BMP180;23057;48.554;14.454;2023-06-19T11:12:19;93848.00;;;35.00
41940;BMP180;23057;48.554;14.454;2023-06-19T11:14:52;93854.00;;;35.00
41940;BMP180;23057;48.554;14.454;2023-06-19T11:17:23;93854.00;;;35.00
41940;BMP180;23057;48.554;14.454;2023-06-19T11:19:57;93851.00;;;35.00
41940;BMP180;23057;48.554;14.454;2023-06-19T11:22:36;93847.00;;;35.00
41940;BMP180;23057;48.554;14.454;2023-06-19T11:25:09;93847.00;;;35.00
41940;BMP180;23057;48.554;14.454;2023-06-19T11:27:41;93852.00;;;35.10
41940;BMP180;23057;48.554;14.454;2023-06-19T11:30:11;93848.00;;;35.20
41940;BMP180;23057;48.554;14.454;2023-06-19T11:32:42;93845.00;;;35.30
41940;BMP180;23057;48.554;14.454;2023-06-19T11:35:15;93847.00;;;35.50
41940;BMP180;23057;48.554;14.454;2023-06-19T11:37:47;93851.00;;;35.50
41940;BMP180;23057;48.554;14.454;2023-06-19T11:40:18;93847.00;;;35.60
41940;BMP180;23057;48.554;14.454;2023-06-19T11:42:53;93841.00;;;35.70
41940;BMP180;23057;48.554;14.454;2023-06-19T11:45:24;93839.00;;;35.90
41940;BMP180;23057;48.554;14.454;2023-06-19T11:47:55;93835.00;;;36.00
41940;BMP180;23057;48.554;14.454;2023-06-19T11:50:27;93838.00;;;36.10
41940;BMP180;23057;48.554;14.454;2023-06-19T11:52:58;93830.00;;;36.20
41940;BMP180;23057;48.554;14.454;2023-06-19T11:55:30;93834.00;;;36.20
41940;BMP180;23057;48.554;14.454;2023-06-19T11:58:01;93835.00;;;36.20
41940;BMP180;23057;48.554;14.454;2023-06-19T12:00:31;93834.00;;;36.10
41940;BMP180;23057;48.554;14.454;2023-06-19T12:03:03;93822.00;;;36.00
41940;BMP180;23057;48.554;14.454;2023-06-19T12:05:34;93829.00;;;36.00
41940;BMP180;23057;48.554;14.454;2023-06-19T12:08:05;93830.00;;;36.00
41940;BMP180;23057;48.554;14.454;2023-06-19T12:10:37;93834.00;;;36.10
41940;BMP180;23057;48.554;14.454;2023-06-19T12:13:07;93823.00;;;36.10
41940;BMP180;23057;48.554;14.454;2023-06-19T12:15:39;93830.00;;;36.20
41940;BMP180;23057;48.554;14.454;2023-06-19T12:18:10;93834.00;;;36.20
41940;BMP180;23057;48.554;14.454;2023-06-19T12:20:42;93823.00;;;36.10
41940;BMP180;23057;48.554;14.454;2023-06-19T12:23:13;93824.00;;;36.20
41940;BMP180;23057;48.554;14.454;2023-06-19T12:25:44;93822.00;;;36.30
41940;BMP180;23057;48.554;14.454;2023-06-19T12:28:15;93825.00;;;36.20
41940;BMP180;23057;48.554;14.454;2023-06-19T12:30:49;93827.00;;;36.20
41940;BMP180;23057;48.554;14.454;2023-06-19T12:33:23;93830.00;;;36.20
41940;BMP180;23057;48.554;14.454;2023-06-19T12:35:54;93836.00;;;36.10
41940;BMP180;23057;48.554;14.454;2023-06-19T12:38:24;93821.00;;;36.10
41940;BMP180;23057;48.554;14.454;2023-06-19T12:40:55;93823.00;;;36.00
41940;BMP180;23057;48.554;14.454;2023-06-19T12:43:26;93832.00;;;36.10
41940;BMP180;23057;48.554;14.454;2023-06-19T12:45:57;93824.00;;;36.00
41940;BMP180;23057;48.554;14.454;2023-06-19T12:48:29;93821.00;;;36.10
41940;BMP180;23057;48.554;14.454;2023-06-19T12:51:00;93824.00;;;36.10
41940;BMP180;23057;48.554;14.454;2023-06-19T12:53:31;93817.00;;;36.10
41940;BMP180;23057;48.554;14.454;2023-06-19T12:56:01;93816.00;;;36.10
41940;BMP180;23057;48.554;14.454;2023-06-19T12:58:32;93808.00;;;36.20
41940;BMP180;23057;48.554;14.454;2023-06-19T13:01:03;93817.00;;;36.20
41940;BMP180;23057;48.554;14.454;2023-06-19T13:03:34;93822.00;;;36.00
41940;BMP180;23057;48.554;14.454;2023-06-19T13:06:05;93819.00;;;35.90
41940;BMP180;23057;48.554;14.454;2023-06-19T13:08:35;93807.00;;;35.80
41940;BMP180;23057;48.554;14.454;2023-06-19T13:11:06;93815.00;;;35.70
41940;BMP180;23057;48.554;14.454;2023-06-19T13:13:37;93816.00;;;35.70
41940;BMP180;23057;48.554;14.454;2023-06-19T13:16:08;93810.00;;;35.70
41940;BMP180;23057;48.554;14.454;2023-06-19T13:18:39;93814.00;;;35.90
41940;BMP180;23057;48.554;14.454;2023-06-19T13:21:13;93816.00;;;36.00
41940;BMP180;23057;48.554;14.454;2023-06-19T13:23:45;93811.00;;;36.00
41940;BMP180;23057;48.554;14.454;2023-06-19T13:26:16;93805.00;;;36.10
41940;BMP180;23057;48.554;14.454;2023-06-19T13:28:47;93809.00;;;36.10
41940;BMP180;23057;48.554;14.454;2023-06-19T13:31:17;93802.00;;;36.20
41940;BMP180;23057;48.554;14.454;2023-06-19T13:33:48;93798.00;;;36.40
41940;BMP180;23057;48.554;14.454;2023-06-19T13:36:19;93793.00;;;36.50
41940;BMP180;23057;48.554;14.454;2023-06-19T13:38:50;93795.00;;;36.40
41940;BMP180;23057;48.554;14.454;2023-06-19T13:41:22;93797.00;;;36.30
41940;BMP180;23057;48.554;14.454;2023-06-19T13:43:57;93796.00;;;36.20
41940;BMP180;23057;48.554;14.454;2023-06-19T13:46:28;93798.00;;;36.20
41940;BMP180;23057;48.554;14.454;2023-06-19T13:48:59;93801.00;;;36.30
41940;BMP180;23057;48.554;14.454;2023-06-19T13:51:31;93794.00;;;36.40
41940;BMP180;23057;48.554;14.454;2023-06-19T13:54:03;93787.00;;;36.50
41940;BMP180;23057;48.554;14.454;2023-06-19T13:56:34;93799.00;;;36.50
41940;BMP180;23057;48.554;14.454;2023-06-19T13:59:05;93794.00;;;36.40
41940;BMP180;23057;48.554;14.454;2023-06-19T14:01:36;93797.00;;;36.40
41940;BMP180;23057;48.554;14.454;2023-06-19T14:04:07;93795.00;;;36.40
41940;BMP180;23057;48.554;14.454;2023-06-19T14:06:39;93793.00;;;36.40
41940;BMP180;23057;48.554;14.454;2023-06-19T14:09:12;93789.00;;;36.40
41940;BMP180;23057;48.554;14.454;2023-06-19T14:11:43;93788.00;;;36.50
41940;BMP180;23057;48.554;14.454;2023-06-19T14:14:14;93788.00;;;36.70
41940;BMP180;23057;48.554;14.454;2023-06-19T14:16:45;93785.00;;;36.70
41940;BMP180;23057;48.554;14.454;2023-06-19T14:19:15;93782.00;;;36.70
41940;BMP180;23057;48.554;14.454;2023-06-19T14:21:46;93790.00;;;36.60
41940;BMP180;23057;48.554;14.454;2023-06-19T14:24:17;93786.00;;;36.60